Time;durP1;ratioP1;P1;durP2;ratioP2;P2;SDS_P1;SDS_P2;PMS_P1;PMS_P2;Temp;Humidity;BMP_temperature;BMP_pressure;BME280_temperature;BME280_humidity;BME280_pressure;Samples;Min_cycle;Max_cycle;Signal;HPM_P1;HPM_P2
2022/08/18 00:00:08;;;;;;;45.73;29.70;;;20.00;99.90;;;;;;5018520;28;20463;-68
2022/08/18 00:02:36;;;;;;;43.40;27.80;;;20.10;99.90;;;;;;5011598;28;20559;-70
2022/08/18 00:05:03;;;;;;;39.33;26.63;;;20.10;99.90;;;;;;5015560;28;20456;-70
2022/08/18 00:07:33;;;;;;;40.07;26.00;;;20.30;99.90;;;;;;5020909;28;20886;-70
2022/08/18 00:10:01;;;;;;;38.37;25.80;;;20.20;99.90;;;;;;5010488;28;20472;-69
2022/08/18 00:12:32;;;;;;;37.47;23.33;;;20.00;99.90;;;;;;5007768;28;20461;-69
2022/08/18 00:15:02;;;;;;;39.97;25.77;;;19.80;99.90;;;;;;5010342;28;20514;-69
2022/08/18 00:17:29;;;;;;;45.50;29.00;;;19.60;99.90;;;;;;5010141;28;20568;-69
2022/08/18 00:19:57;;;;;;;48.40;28.20;;;19.70;99.90;;;;;;5015172;28;20461;-69
2022/08/18 00:22:24;;;;;;;44.03;28.53;;;19.80;99.90;;;;;;5009769;28;20988;-69
2022/08/18 00:24:55;;;;;;;46.90;30.87;;;19.70;99.90;;;;;;5020977;28;20457;-69
2022/08/18 00:27:24;;;;;;;44.10;28.70;;;19.70;99.90;;;;;;5014287;28;20485;-69
2022/08/18 00:29:53;;;;;;;44.83;30.47;;;19.80;99.90;;;;;;5013838;28;20461;-69
2022/08/18 00:32:22;;;;;;;41.13;24.40;;;19.80;99.90;;;;;;5016547;28;20457;-69
2022/08/18 00:34:48;;;;;;;44.13;26.93;;;19.90;99.90;;;;;;5019641;28;20479;-69
2022/08/18 00:37:18;;;;;;;46.50;29.43;;;19.90;99.90;;;;;;5012803;28;21135;-70
2022/08/18 00:39:47;;;;;;;53.40;28.80;;;19.90;99.90;;;;;;5009479;28;20460;-69
2022/08/18 00:42:18;;;;;;;48.33;28.60;;;19.80;99.90;;;;;;5019416;28;20940;-69
2022/08/18 00:44:48;;;;;;;52.70;31.90;;;19.70;99.90;;;;;;5017660;28;20870;-69
2022/08/18 00:47:15;;;;;;;37.70;25.90;;;19.70;99.90;;;;;;5024715;28;21014;-69
2022/08/18 00:49:44;;;;;;;47.80;30.93;;;19.70;99.90;;;;;;5017088;28;21019;-69
2022/08/18 00:52:13;;;;;;;45.00;28.53;;;19.60;99.90;;;;;;5014384;28;21010;-70
2022/08/18 00:54:43;;;;;;;46.97;29.20;;;19.50;99.90;;;;;;5006022;28;20461;-69
2022/08/18 00:57:12;;;;;;;53.57;30.97;;;19.70;99.90;;;;;;5013893;28;20575;-69
2022/08/18 00:59:48;;;;;;;40.80;27.70;;;19.90;99.90;;;;;;5019961;28;20462;-69
2022/08/18 01:02:20;;;;;;;52.13;30.37;;;20.10;99.90;;;;;;5005369;28;20851;-70
2022/08/18 01:04:54;;;;;;;51.87;30.47;;;20.10;99.90;;;;;;5011896;28;20462;-70
2022/08/18 01:07:28;;;;;;;40.40;25.87;;;19.90;99.90;;;;;;5009343;28;20477;-70
2022/08/18 01:10:00;;;;;;;47.37;29.20;;;19.80;99.90;;;;;;5017841;28;20908;-71
2022/08/18 01:12:27;;;;;;;49.40;30.57;;;19.90;99.90;;;;;;5011667;28;20591;-70
2022/08/18 01:14:56;;;;;;;50.33;31.50;;;20.00;99.90;;;;;;5020285;28;20461;-70
2022/08/18 01:23:12;;;;;;;46.67;31.67;;;20.10;99.90;;;;;;5011881;28;20484;-70
2022/08/18 01:28:24;;;;;;;45.57;29.67;;;20.10;99.90;;;;;;5010394;28;20491;-72
2022/08/18 01:30:57;;;;;;;44.83;28.70;;;20.10;99.90;;;;;;5020331;28;20492;-70
2022/08/18 01:33:27;;;;;;;42.03;28.30;;;20.00;99.90;;;;;;5010960;28;20440;-70
2022/08/18 01:35:54;;;;;;;46.83;28.07;;;19.70;99.90;;;;;;5003305;28;20474;-70
2022/08/18 01:38:23;;;;;;;45.53;29.83;;;19.60;99.90;;;;;;5012289;28;20536;-70
2022/08/18 01:40:50;;;;;;;55.67;32.77;;;19.70;99.90;;;;;;5017795;28;20763;-70
2022/08/18 01:43:17;;;;;;;47.80;31.80;;;19.60;99.90;;;;;;5015739;28;20480;-70
2022/08/18 01:45:44;;;;;;;45.87;29.97;;;19.60;99.90;;;;;;5012658;28;20479;-70
2022/08/18 01:48:14;;;;;;;58.73;33.57;;;19.60;99.90;;;;;;5027510;28;20456;-70
2022/08/18 01:50:43;;;;;;;55.47;34.90;;;19.50;99.90;;;;;;5019458;28;20461;-70
2022/08/18 01:53:10;;;;;;;62.47;33.13;;;19.60;99.90;;;;;;5023433;28;20460;-70
2022/08/18 01:55:42;;;;;;;54.50;30.87;;;19.70;99.90;;;;;;5017742;28;20468;-70
2022/08/18 01:58:08;;;;;;;50.27;30.30;;;19.80;99.90;;;;;;5021163;28;20457;-70
2022/08/18 02:00:36;;;;;;;46.17;29.10;;;19.70;99.90;;;;;;5014681;28;20459;-70
2022/08/18 02:03:08;;;;;;;50.50;31.83;;;19.60;99.90;;;;;;5015061;28;20514;-70
2022/08/18 02:05:40;;;;;;;61.20;32.73;;;19.50;99.90;;;;;;5020895;28;20476;-70
2022/08/18 02:08:07;;;;;;;50.47;30.80;;;19.70;99.90;;;;;;5019795;28;20942;-70
2022/08/18 02:10:34;;;;;;;59.17;33.40;;;19.70;99.90;;;;;;5018666;28;20464;-70
2022/08/18 02:13:02;;;;;;;55.73;31.90;;;19.80;99.90;;;;;;5014624;28;20548;-70
2022/08/18 02:15:29;;;;;;;54.60;31.57;;;19.80;99.90;;;;;;5020053;28;20456;-70
2022/08/18 02:17:56;;;;;;;52.10;31.53;;;19.80;99.90;;;;;;5028476;28;20560;-69
2022/08/18 02:20:23;;;;;;;50.03;31.67;;;19.80;99.90;;;;;;5010429;28;20945;-70
2022/08/18 02:22:50;;;;;;;51.70;30.40;;;19.80;99.90;;;;;;5018639;28;20485;-69
2022/08/18 02:25:18;;;;;;;49.47;32.00;;;19.80;99.90;;;;;;5019003;28;20489;-70
2022/08/18 02:27:46;;;;;;;56.53;33.10;;;19.60;99.90;;;;;;5021434;28;20488;-69
2022/08/18 02:30:18;;;;;;;55.67;35.00;;;19.50;99.90;;;;;;5016363;28;20461;-70
2022/08/18 02:32:45;;;;;;;52.23;31.43;;;19.40;99.90;;;;;;5011466;28;20540;-70
2022/08/18 02:35:11;;;;;;;45.63;29.20;;;19.40;99.90;;;;;;5022635;28;20468;-70
2022/08/18 02:37:39;;;;;;;59.33;36.30;;;19.50;99.90;;;;;;5021941;28;20479;-70
2022/08/18 02:40:07;;;;;;;43.57;27.90;;;19.60;99.90;;;;;;5023880;28;20461;-70
2022/08/18 02:42:37;;;;;;;51.10;30.70;;;19.80;99.90;;;;;;5014897;28;20516;-69
2022/08/18 02:45:04;;;;;;;53.70;32.87;;;19.90;99.90;;;;;;5023612;28;20460;-70
2022/08/18 02:47:33;;;;;;;49.90;30.27;;;20.00;99.90;;;;;;5021991;28;20488;-70
2022/08/18 02:49:59;;;;;;;52.60;34.73;;;20.00;99.90;;;;;;5022946;28;20456;-70
2022/08/18 02:52:28;;;;;;;68.43;33.53;;;20.10;99.90;;;;;;5020276;28;20475;-70
2022/08/18 02:54:55;;;;;;;56.27;33.87;;;20.20;99.90;;;;;;5014296;28;20547;-69
2022/08/18 02:57:22;;;;;;;58.90;33.10;;;20.30;99.90;;;;;;5013679;28;20479;-69
2022/08/18 02:59:49;;;;;;;68.27;34.43;;;20.40;99.90;;;;;;5016117;28;20464;-69
2022/08/18 03:02:16;;;;;;;62.30;36.47;;;20.50;99.90;;;;;;5008558;28;20476;-69
2022/08/18 03:04:44;;;;;;;59.50;37.13;;;20.40;99.90;;;;;;5021749;28;20430;-69
2022/08/18 03:07:11;;;;;;;61.20;37.30;;;20.40;99.90;;;;;;5017679;28;20489;-69
2022/08/18 03:09:38;;;;;;;60.67;36.43;;;20.40;99.90;;;;;;5017311;28;20620;-69
2022/08/18 03:12:07;;;;;;;65.03;36.77;;;20.40;99.90;;;;;;5024213;28;20522;-69
2022/08/18 03:14:35;;;;;;;74.17;39.97;;;20.40;99.90;;;;;;5024538;28;20485;-69
2022/08/18 03:17:04;;;;;;;62.00;36.63;;;20.40;99.90;;;;;;5024655;28;20477;-69
2022/08/18 03:19:31;;;;;;;66.73;38.90;;;20.20;99.90;;;;;;5007003;28;20457;-69
2022/08/18 03:22:00;;;;;;;67.17;39.37;;;20.30;99.90;;;;;;5012685;28;20462;-70
2022/08/18 03:24:28;;;;;;;63.40;37.40;;;20.40;99.90;;;;;;5013905;28;20500;-69
2022/08/18 03:26:56;;;;;;;65.77;38.40;;;20.30;99.90;;;;;;5007387;28;20877;-69
2022/08/18 03:29:24;;;;;;;76.97;38.97;;;20.30;99.90;;;;;;5013393;28;20547;-69
2022/08/18 03:31:51;;;;;;;60.87;34.13;;;20.10;99.90;;;;;;5012660;28;20461;-69
2022/08/18 03:34:20;;;;;;;65.77;36.53;;;20.30;99.90;;;;;;5020454;28;20823;-69
2022/08/18 03:36:48;;;;;;;66.13;35.53;;;20.30;99.90;;;;;;5011635;28;20853;-69
2022/08/18 03:39:18;;;;;;;68.33;38.07;;;20.30;99.90;;;;;;5000140;28;20460;-68
2022/08/18 03:41:46;;;;;;;75.83;38.97;;;20.40;99.90;;;;;;5007893;28;20460;-69
2022/08/18 03:44:14;;;;;;;70.33;37.33;;;20.50;99.90;;;;;;5009581;28;20481;-69
2022/08/18 03:46:42;;;;;;;73.63;37.33;;;20.30;99.90;;;;;;5003234;28;20872;-69
2022/08/18 03:49:09;;;;;;;78.97;38.30;;;20.30;99.90;;;;;;5013527;28;20484;-69
2022/08/18 03:51:35;;;;;;;85.40;41.43;;;20.40;99.90;;;;;;5008415;28;20462;-69
2022/08/18 03:54:05;;;;;;;77.20;41.37;;;20.50;99.90;;;;;;5029791;28;20557;-69
2022/08/18 03:56:36;;;;;;;84.83;36.43;;;20.50;99.90;;;;;;5021761;28;20530;-69
2022/08/18 03:59:07;;;;;;;83.83;37.17;;;20.50;99.90;;;;;;5029043;28;20464;-69
2022/08/18 04:01:38;;;;;;;93.73;41.13;;;20.40;99.90;;;;;;5016353;28;20464;-69
2022/08/18 04:04:07;;;;;;;75.87;39.10;;;20.30;99.90;;;;;;5024298;28;20491;-69
2022/08/18 04:06:37;;;;;;;82.63;36.93;;;20.20;99.90;;;;;;5016705;28;20486;-69
2022/08/18 04:09:07;;;;;;;89.10;39.03;;;20.40;99.90;;;;;;5016744;28;20586;-69
2022/08/18 04:11:36;;;;;;;74.43;36.77;;;20.30;99.90;;;;;;5021221;28;20930;-69
2022/08/18 04:14:04;;;;;;;76.73;36.17;;;20.30;99.90;;;;;;5024682;28;20954;-69
2022/08/18 04:16:33;;;;;;;71.00;34.73;;;20.40;99.90;;;;;;5025011;28;20560;-69
2022/08/18 04:19:02;;;;;;;70.03;33.63;;;20.40;99.90;;;;;;5025493;28;20503;-69
2022/08/18 04:21:30;;;;;;;91.50;41.30;;;20.40;99.90;;;;;;5025826;28;20524;-69
2022/08/18 04:23:58;;;;;;;75.13;37.43;;;20.50;99.90;;;;;;5022846;28;20489;-69
2022/08/18 04:26:25;;;;;;;91.43;39.67;;;20.40;99.90;;;;;;5019834;28;20473;-68
2022/08/18 04:28:54;;;;;;;90.13;36.20;;;20.30;99.90;;;;;;5026544;28;20540;-69
2022/08/18 04:31:23;;;;;;;92.67;37.50;;;20.20;99.90;;;;;;5013808;28;20449;-69
2022/08/18 04:33:50;;;;;;;97.20;40.47;;;20.40;99.90;;;;;;5024714;28;20459;-69
2022/08/18 04:36:17;;;;;;;91.93;40.60;;;20.50;99.90;;;;;;5021006;28;20468;-69
2022/08/18 04:38:44;;;;;;;86.90;39.17;;;20.50;99.90;;;;;;5028760;28;20457;-69
2022/08/18 04:41:13;;;;;;;83.60;35.87;;;20.60;99.90;;;;;;5012488;28;20468;-69
2022/08/18 04:43:40;;;;;;;105.77;37.17;;;20.60;99.90;;;;;;5014382;28;20477;-69
2022/08/18 04:46:10;;;;;;;91.00;38.80;;;20.60;99.90;;;;;;5018997;28;20472;-69
2022/08/18 04:48:39;;;;;;;86.57;35.07;;;20.70;99.90;;;;;;5019166;28;20453;-69
2022/08/18 04:51:08;;;;;;;90.40;37.27;;;20.70;99.90;;;;;;5019406;28;20975;-69
2022/08/18 04:53:45;;;;;;;86.60;38.20;;;20.50;99.90;;;;;;5005643;28;20460;-69
2022/08/18 04:56:24;;;;;;;99.67;38.17;;;20.40;99.90;;;;;;5018049;28;20641;-70
2022/08/18 04:58:51;;;;;;;97.80;38.37;;;20.20;99.90;;;;;;5029709;28;20452;-69
2022/08/18 05:01:22;;;;;;;97.97;35.53;;;20.10;99.90;;;;;;5025876;28;20472;-70
2022/08/18 05:03:50;;;;;;;98.13;37.80;;;20.10;99.90;;;;;;5014674;28;20858;-69
2022/08/18 05:06:18;;;;;;;82.43;36.07;;;20.20;99.90;;;;;;5023525;28;20555;-70
2022/08/18 05:08:47;;;;;;;86.07;35.50;;;20.20;99.90;;;;;;5029675;28;20828;-70
2022/08/18 05:11:14;;;;;;;98.67;33.33;;;20.20;99.90;;;;;;5029058;28;20632;-70
2022/08/18 05:13:41;;;;;;;91.37;36.60;;;20.30;99.90;;;;;;5034569;28;20470;-69
2022/08/18 05:16:08;;;;;;;95.90;39.83;;;20.50;99.90;;;;;;5025574;28;20619;-69
2022/08/18 05:18:39;;;;;;;87.57;34.50;;;20.50;99.90;;;;;;5024897;28;20448;-69
2022/08/18 05:21:07;;;;;;;88.53;36.77;;;20.40;99.90;;;;;;5022524;28;20476;-70
2022/08/18 05:23:35;;;;;;;110.27;38.77;;;20.40;99.90;;;;;;5029838;28;20484;-70
2022/08/18 05:26:03;;;;;;;90.23;40.37;;;20.50;99.90;;;;;;5024947;28;20484;-70
2022/08/18 05:28:30;;;;;;;109.80;40.57;;;20.60;99.90;;;;;;5023245;28;20555;-70
2022/08/18 05:30:57;;;;;;;100.07;40.27;;;20.70;99.90;;;;;;5020082;28;20461;-69
2022/08/18 05:33:24;;;;;;;82.33;34.63;;;20.70;99.90;;;;;;5022597;28;20538;-70
2022/08/18 05:36:02;;;;;;;101.87;37.87;;;20.80;99.90;;;;;;5029765;28;20571;-70
2022/08/18 05:38:41;;;;;;;86.50;35.77;;;20.80;99.90;;;;;;5027312;28;20454;-70
2022/08/18 05:41:11;;;;;;;88.13;35.50;;;20.80;99.90;;;;;;5028358;28;20852;-70
2022/08/18 05:43:40;;;;;;;81.27;35.07;;;20.90;99.90;;;;;;5023269;28;20501;-70
2022/08/18 05:46:09;;;;;;;75.43;32.73;;;20.90;99.90;;;;;;5024618;28;20466;-69
2022/08/18 05:48:36;;;;;;;76.27;33.40;;;20.80;99.90;;;;;;5012958;28;20436;-71
2022/08/18 05:51:12;;;;;;;79.03;39.57;;;20.90;99.90;;;;;;5028140;28;20542;-69
2022/08/18 05:56:46;;;;;;;72.77;31.10;;;20.90;99.90;;;;;;5027348;28;20564;-70
2022/08/18 05:59:17;;;;;;;67.20;34.40;;;20.90;99.90;;;;;;5019951;28;20894;-70
2022/08/18 06:01:50;;;;;;;84.27;35.83;;;20.90;99.90;;;;;;5021138;28;27140;-69
2022/08/18 06:04:26;;;;;;;70.90;34.50;;;20.80;99.90;;;;;;5030854;28;21178;-70
2022/08/18 06:06:56;;;;;;;79.10;34.97;;;20.90;99.90;;;;;;5018185;28;20475;-69
2022/08/18 06:09:28;;;;;;;85.87;36.67;;;20.90;99.90;;;;;;5015798;28;20845;-69
2022/08/18 06:12:04;;;;;;;65.20;35.27;;;20.90;99.90;;;;;;5018867;28;20575;-69
2022/08/18 06:14:31;;;;;;;65.13;30.97;;;21.00;99.90;;;;;;5027407;28;20495;-69
2022/08/18 06:17:08;;;;;;;75.50;34.30;;;21.10;99.90;;;;;;5026950;28;21001;-69
2022/08/18 06:19:45;;;;;;;76.30;33.33;;;21.00;99.90;;;;;;5031782;28;20444;-69
2022/08/18 06:22:24;;;;;;;71.53;33.33;;;21.00;99.90;;;;;;5027486;28;20463;-69
2022/08/18 06:25:00;;;;;;;61.60;30.93;;;21.10;99.90;;;;;;5017387;28;20524;-70
2022/08/18 06:27:34;;;;;;;68.60;34.67;;;21.10;99.90;;;;;;5022590;28;20507;-70
2022/08/18 06:30:10;;;;;;;65.40;31.77;;;21.10;99.90;;;;;;5015713;28;20483;-69
2022/08/18 06:33:03;;;;;;;68.17;30.77;;;21.10;99.90;;;;;;5031697;28;20546;-70
2022/08/18 06:35:36;;;;;;;57.60;30.17;;;21.10;99.90;;;;;;5031451;28;20586;-70
2022/08/18 06:41:09;;;;;;;76.57;30.77;;;21.50;99.90;;;;;;5023358;28;20452;-70
2022/08/18 06:43:39;;;;;;;70.87;33.27;;;21.40;99.90;;;;;;5030190;28;20509;-70
2022/08/18 06:46:12;;;;;;;72.67;32.20;;;21.60;99.90;;;;;;5026795;28;20575;-70
2022/08/18 06:48:50;;;;;;;74.07;30.57;;;21.60;99.90;;;;;;5022168;28;20475;-70
2022/08/18 06:51:20;;;;;;;78.60;31.00;;;21.70;99.90;;;;;;5038085;28;20509;-70
2022/08/18 06:53:55;;;;;;;69.17;31.23;;;21.60;99.90;;;;;;5025966;28;20453;-70
2022/08/18 06:56:25;;;;;;;77.53;31.30;;;21.70;99.90;;;;;;5025566;28;20480;-69
2022/08/18 06:58:54;;;;;;;64.57;30.97;;;21.70;99.90;;;;;;5029115;28;20533;-69
2022/08/18 07:01:22;;;;;;;74.70;32.10;;;21.60;99.90;;;;;;5028309;28;21111;-69
2022/08/18 07:03:53;;;;;;;78.40;31.33;;;21.70;99.90;;;;;;5031360;28;20487;-69
2022/08/18 07:06:30;;;;;;;75.57;34.37;;;21.60;99.90;;;;;;5021568;28;20522;-69
2022/08/18 07:09:20;;;;;;;76.30;36.07;;;21.50;99.90;;;;;;5027718;28;20452;-70
2022/08/18 07:12:03;;;;;;;61.03;33.83;;;21.60;99.90;;;;;;5027715;28;20909;-69
2022/08/18 07:14:30;;;;;;;73.83;31.57;;;21.70;99.90;;;;;;5026909;28;20441;-69
2022/08/18 07:17:07;;;;;;;72.30;33.60;;;21.70;99.90;;;;;;5028672;28;20896;-69
2022/08/18 07:19:35;;;;;;;87.53;37.30;;;21.70;99.90;;;;;;5026462;28;20463;-69
2022/08/18 07:22:06;;;;;;;76.83;33.53;;;21.50;99.90;;;;;;5024795;28;20898;-70
2022/08/18 07:24:39;;;;;;;86.13;37.60;;;21.50;99.90;;;;;;5033830;28;20568;-69
2022/08/18 07:27:09;;;;;;;82.53;36.83;;;21.60;99.90;;;;;;5023875;28;20996;-69
2022/08/18 07:29:39;;;;;;;70.10;30.07;;;21.60;99.90;;;;;;5028345;28;20460;-69
2022/08/18 07:32:13;;;;;;;72.70;33.30;;;21.80;99.90;;;;;;5021963;28;20527;-68
2022/08/18 07:34:43;;;;;;;82.27;35.40;;;21.80;99.90;;;;;;5036764;28;20443;-69
2022/08/18 07:37:16;;;;;;;77.93;37.03;;;21.80;99.90;;;;;;5025537;28;20738;-70
2022/08/18 07:39:50;;;;;;;74.87;33.67;;;21.60;99.90;;;;;;5031949;28;20457;-69
2022/08/18 07:42:31;;;;;;;78.07;37.40;;;21.60;99.90;;;;;;5022237;28;20460;-69
2022/08/18 07:45:03;;;;;;;91.97;33.00;;;21.60;99.90;;;;;;5025732;28;20579;-69
2022/08/18 07:47:35;;;;;;;75.83;32.37;;;21.60;99.90;;;;;;5029576;28;20468;-69
2022/08/18 07:50:04;;;;;;;73.63;32.30;;;21.70;99.90;;;;;;5026252;28;20448;-69
2022/08/18 07:52:36;;;;;;;67.03;32.70;;;21.80;99.90;;;;;;5029391;28;20817;-69
2022/08/18 07:55:16;;;;;;;76.43;35.10;;;21.80;99.90;;;;;;5024444;28;20465;-69
2022/08/18 07:57:47;;;;;;;71.10;31.10;;;21.80;99.90;;;;;;5037794;28;20534;-69
2022/08/18 08:00:20;;;;;;;66.27;30.87;;;21.50;99.90;;;;;;5046707;28;20456;-69
2022/08/18 08:02:58;;;;;;;71.73;32.30;;;21.60;99.90;;;;;;5041992;28;20484;-70
2022/08/18 08:05:41;;;;;;;77.83;33.40;;;21.80;99.90;;;;;;5032718;28;21079;-69
2022/08/18 08:08:19;;;;;;;74.30;33.10;;;21.90;99.90;;;;;;5028466;28;20525;-68
2022/08/18 08:10:54;;;;;;;75.30;30.63;;;21.80;99.90;;;;;;5025896;28;21261;-69
2022/08/18 08:13:31;;;;;;;79.50;32.47;;;21.80;99.90;;;;;;5026958;28;20819;-69
2022/08/18 08:16:04;;;;;;;66.10;30.70;;;21.80;99.90;;;;;;5026410;28;20504;-69
2022/08/18 08:18:45;;;;;;;64.67;32.10;;;21.90;99.90;;;;;;5029386;28;20551;-69
2022/08/18 08:21:18;;;;;;;67.87;30.93;;;21.60;99.90;;;;;;5024009;28;20457;-69
2022/08/18 08:23:52;;;;;;;63.03;28.27;;;21.80;99.90;;;;;;5020152;28;20450;-69
2022/08/18 08:26:40;;;;;;;70.53;31.33;;;21.90;99.90;;;;;;5025178;28;20543;-69
2022/08/18 08:29:18;;;;;;;63.77;30.87;;;21.80;99.90;;;;;;5031448;28;20452;-69
2022/08/18 08:31:54;;;;;;;60.57;30.90;;;21.90;99.90;;;;;;5018292;28;20452;-69
2022/08/18 08:34:27;;;;;;;63.30;32.00;;;22.10;99.90;;;;;;5021542;28;20540;-69
2022/08/18 08:37:01;;;;;;;64.17;31.27;;;22.20;99.90;;;;;;5030558;28;20480;-69
2022/08/18 08:39:36;;;;;;;65.17;30.93;;;22.30;99.90;;;;;;5024130;28;20446;-69
2022/08/18 08:42:11;;;;;;;56.73;26.73;;;22.50;99.90;;;;;;5027479;28;20499;-69
2022/08/18 08:44:45;;;;;;;58.67;29.70;;;22.80;99.90;;;;;;5026083;28;20563;-69
2022/08/18 08:47:18;;;;;;;46.47;24.87;;;23.00;99.90;;;;;;5026830;28;20462;-70
2022/08/18 08:49:50;;;;;;;47.80;24.83;;;23.30;99.90;;;;;;5025987;28;20457;-69
2022/08/18 08:52:22;;;;;;;48.87;26.20;;;23.80;99.90;;;;;;5023938;28;20462;-69
2022/08/18 08:54:54;;;;;;;37.07;21.70;;;24.10;99.90;;;;;;5029436;28;20489;-70
2022/08/18 08:57:31;;;;;;;49.70;26.07;;;24.20;99.90;;;;;;5026321;28;20461;-69
2022/08/18 09:00:01;;;;;;;43.97;25.10;;;24.20;99.90;;;;;;5026856;28;20504;-69
2022/08/18 09:03:01;;;;;;;61.37;30.07;;;24.20;99.90;;;;;;5031056;28;20572;-69
2022/08/18 09:05:30;;;;;;;54.87;27.20;;;24.20;99.90;;;;;;5027422;28;20491;-70
2022/08/18 09:08:22;;;;;;;56.00;25.77;;;24.20;99.90;;;;;;5017932;28;20462;-70
2022/08/18 09:11:20;;;;;;;43.23;21.97;;;24.20;99.90;;;;;;5007337;28;20838;-70
2022/08/18 09:14:08;;;;;;;46.40;26.27;;;24.20;99.90;;;;;;5023221;28;20540;-70
2022/08/18 09:16:47;;;;;;;48.03;25.80;;;24.20;99.90;;;;;;5025333;28;20468;-70
2022/08/18 09:19:40;;;;;;;45.93;24.30;;;24.40;99.90;;;;;;5024884;28;20556;-70
2022/08/18 09:22:18;;;;;;;45.70;24.50;;;24.40;99.90;;;;;;5026484;28;20536;-70
2022/08/18 09:24:48;;;;;;;47.40;25.60;;;24.80;99.90;;;;;;5024577;28;20485;-69
2022/08/18 09:27:30;;;;;;;50.03;27.40;;;25.00;99.90;;;;;;5020965;28;20493;-69
2022/08/18 09:30:00;;;;;;;43.90;24.77;;;25.10;99.90;;;;;;5010883;28;20462;-70
2022/08/18 09:33:04;;;;;;;41.03;22.50;;;25.30;99.90;;;;;;5020601;28;20455;-70
2022/08/18 09:35:46;;;;;;;48.97;23.13;;;24.60;99.90;;;;;;5031846;28;20445;-70
2022/08/18 09:44:08;;;;;;;41.67;22.47;;;24.30;99.90;;;;;;5027166;28;21024;-69
2022/08/18 09:46:59;;;;;;;41.23;23.57;;;24.20;99.90;;;;;;5024488;28;20477;-70
2022/08/18 09:49:42;;;;;;;39.30;22.27;;;24.10;99.90;;;;;;5021498;28;20842;-69
2022/08/18 09:52:55;;;;;;;44.37;23.90;;;23.70;99.90;;;;;;5031076;28;20470;-70
2022/08/18 09:55:55;;;;;;;44.87;22.10;;;23.60;99.90;;;;;;5023360;28;20442;-69
2022/08/18 09:58:55;;;;;;;40.60;24.33;;;23.20;99.90;;;;;;5022109;28;20489;-69
2022/08/18 10:01:41;;;;;;;34.57;20.13;;;23.20;99.90;;;;;;5011646;28;20454;-69
2022/08/18 10:04:31;;;;;;;48.83;23.57;;;23.40;99.90;;;;;;5012685;28;20463;-69
2022/08/18 10:07:20;;;;;;;41.50;23.50;;;23.70;99.90;;;;;;5036504;28;20469;-71
2022/08/18 10:10:10;;;;;;;40.60;23.63;;;23.70;99.90;;;;;;5024794;28;20524;-69
2022/08/18 10:12:55;;;;;;;38.60;23.67;;;23.70;99.90;;;;;;5025186;28;20543;-69
2022/08/18 10:15:36;;;;;;;39.53;20.60;;;23.70;99.90;;;;;;5037480;28;20440;-69
2022/08/18 10:18:33;;;;;;;37.13;23.00;;;23.50;99.90;;;;;;5024581;28;20444;-70
2022/08/18 10:21:09;;;;;;;37.20;21.63;;;23.70;99.90;;;;;;5004918;28;20442;-69
2022/08/18 10:23:52;;;;;;;38.63;22.87;;;23.80;99.90;;;;;;5019871;28;20465;-70
2022/08/18 10:27:07;;;;;;;45.10;26.00;;;23.70;99.90;;;;;;5033998;28;20477;-70
2022/08/18 10:29:52;;;;;;;40.90;22.87;;;23.80;99.90;;;;;;5035165;28;20932;-70
2022/08/18 10:32:36;;;;;;;38.73;23.43;;;24.00;99.90;;;;;;5023964;28;20475;-70
2022/08/18 10:35:04;;;;;;;36.93;22.50;;;24.10;99.90;;;;;;5028438;28;20447;-70
2022/08/18 10:37:38;;;;;;;39.57;23.90;;;24.50;99.90;;;;;;5029177;28;20514;-71
2022/08/18 10:40:15;;;;;;;34.43;22.67;;;25.00;99.90;;;;;;5031189;28;20442;-70
2022/08/18 10:42:48;;;;;;;44.93;26.53;;;25.50;99.90;;;;;;5032796;28;20442;-70
2022/08/18 10:45:22;;;;;;;41.17;22.67;;;25.50;99.90;;;;;;5027771;28;21007;-70
2022/08/18 10:48:02;;;;;;;42.40;24.33;;;25.90;99.90;;;;;;5027873;28;20472;-70
2022/08/18 10:50:34;;;;;;;32.63;20.87;;;25.90;99.90;;;;;;5020782;28;20960;-70
2022/08/18 10:53:12;;;;;;;40.70;23.23;;;25.70;99.90;;;;;;5024575;28;20451;-70
2022/08/18 10:55:50;;;;;;;36.70;22.87;;;25.70;99.90;;;;;;5027339;28;20553;-70
2022/08/18 10:59:00;;;;;;;29.37;19.03;;;25.60;99.90;;;;;;5024302;28;20523;-70
2022/08/18 11:01:44;;;;;;;35.13;20.07;;;25.60;99.90;;;;;;5029626;28;20936;-70
2022/08/18 11:04:26;;;;;;;33.27;19.50;;;25.70;99.90;;;;;;5032325;28;21044;-70
2022/08/18 11:07:02;;;;;;;29.77;19.43;;;25.30;99.90;;;;;;5028037;28;20482;-70
2022/08/18 11:09:31;;;;;;;76.20;24.93;;;25.10;99.90;;;;;;5031405;28;20465;-70
2022/08/18 11:12:01;;;;;;;49.43;24.00;;;25.10;99.90;;;;;;5025777;28;20472;-69
2022/08/18 11:15:11;;;;;;;28.67;19.10;;;25.30;99.90;;;;;;5026898;28;20895;-69
2022/08/18 11:17:50;;;;;;;29.70;20.77;;;25.40;99.90;;;;;;5028892;28;20514;-69
2022/08/18 11:20:20;;;;;;;31.57;20.03;;;25.40;99.90;;;;;;5029799;28;20894;-71
2022/08/18 11:22:52;;;;;;;42.37;21.53;;;25.30;99.90;;;;;;5028084;28;20984;-69
2022/08/18 11:25:26;;;;;;;22.23;16.90;;;25.20;99.90;;;;;;5033386;28;20494;-70
2022/08/18 11:27:53;;;;;;;23.67;15.40;;;24.80;99.90;;;;;;5019797;28;20944;-69
2022/08/18 11:30:21;;;;;;;21.33;14.57;;;24.80;99.90;;;;;;5029184;28;20448;-69
2022/08/18 11:32:50;;;;;;;18.20;14.23;;;24.70;99.90;;;;;;5026431;28;20467;-69
2022/08/18 11:35:20;;;;;;;22.27;14.53;;;24.60;99.90;;;;;;5031731;28;20447;-70
2022/08/18 11:37:50;;;;;;;21.10;14.40;;;24.50;99.90;;;;;;5030341;28;20481;-70
2022/08/18 11:40:35;;;;;;;19.70;15.97;;;24.50;99.90;;;;;;5028206;28;20546;-70
2022/08/18 11:43:06;;;;;;;19.60;14.80;;;24.40;99.90;;;;;;5034297;28;20456;-70
2022/08/18 11:45:47;;;;;;;19.70;14.73;;;24.50;99.90;;;;;;5027982;28;20487;-70
2022/08/18 11:48:20;;;;;;;19.40;14.90;;;24.50;99.90;;;;;;5027708;28;20447;-69
2022/08/18 11:50:50;;;;;;;17.57;13.40;;;24.70;99.90;;;;;;5027051;28;20463;-69
2022/08/18 11:53:26;;;;;;;20.30;15.37;;;24.60;99.90;;;;;;5031437;28;20453;-69
2022/08/18 11:56:11;;;;;;;18.30;14.90;;;24.60;99.90;;;;;;5027239;28;20561;-69
2022/08/18 11:58:39;;;;;;;21.20;15.03;;;24.50;99.90;;;;;;5028846;28;20483;-70
2022/08/18 12:01:08;;;;;;;19.97;13.40;;;24.40;99.90;;;;;;5029193;28;20556;-69
2022/08/18 12:03:42;;;;;;;19.60;16.60;;;24.30;99.90;;;;;;5031753;28;20447;-69
2022/08/18 12:06:19;;;;;;;21.50;15.47;;;24.50;99.90;;;;;;5031530;28;20572;-69
2022/08/18 12:08:54;;;;;;;20.57;14.40;;;24.50;99.90;;;;;;5018890;28;20466;-71
2022/08/18 12:11:25;;;;;;;16.87;13.63;;;24.60;99.90;;;;;;5029438;28;20446;-71
2022/08/18 12:14:00;;;;;;;19.40;14.30;;;24.60;99.90;;;;;;5028310;28;20450;-69
2022/08/18 12:16:38;;;;;;;17.80;13.37;;;24.50;99.90;;;;;;5025954;28;20455;-69
2022/08/18 12:19:07;;;;;;;21.53;12.63;;;24.50;99.90;;;;;;5034120;28;20883;-70
2022/08/18 12:21:37;;;;;;;14.57;12.00;;;24.70;99.90;;;;;;5026245;28;20451;-70
2022/08/18 12:24:05;;;;;;;22.90;14.20;;;25.00;99.90;;;;;;5033370;28;20757;-70
2022/08/18 12:26:33;;;;;;;17.33;13.63;;;25.10;99.90;;;;;;5028393;28;20486;-70
2022/08/18 12:29:00;;;;;;;15.07;13.00;;;25.50;99.90;;;;;;5025976;28;20446;-70
2022/08/18 12:31:27;;;;;;;16.77;14.47;;;25.40;99.90;;;;;;5032558;28;20536;-70
2022/08/18 12:33:54;;;;;;;21.37;14.23;;;25.50;99.90;;;;;;5026813;28;20455;-70
2022/08/18 12:36:21;;;;;;;17.67;12.03;;;25.40;99.90;;;;;;5028176;28;20462;-70
2022/08/18 12:38:48;;;;;;;18.00;12.77;;;25.70;99.90;;;;;;5026809;28;20451;-70
2022/08/18 12:41:15;;;;;;;17.20;13.07;;;25.90;99.90;;;;;;5034640;28;20448;-70
2022/08/18 12:43:43;;;;;;;15.70;13.73;;;26.00;99.90;;;;;;5016086;28;20559;-70
2022/08/18 12:46:10;;;;;;;15.33;13.33;;;26.20;99.90;;;;;;5013737;28;20489;-70
2022/08/18 12:48:38;;;;;;;13.87;11.77;;;26.30;99.90;;;;;;5022413;28;20451;-70
2022/08/18 12:51:05;;;;;;;19.40;11.90;;;26.40;99.90;;;;;;5023839;28;20475;-70
2022/08/18 12:53:33;;;;;;;20.47;12.10;;;26.50;99.90;;;;;;5014606;28;20558;-70
2022/08/18 12:56:00;;;;;;;13.73;11.93;;;26.30;99.90;;;;;;5023130;28;20467;-70
2022/08/18 12:58:28;;;;;;;14.63;11.87;;;26.50;99.90;;;;;;5029814;28;20996;-70
2022/08/18 13:00:57;;;;;;;15.97;11.50;;;26.70;99.90;;;;;;5017027;28;20958;-69
2022/08/18 13:03:24;;;;;;;13.97;12.00;;;26.40;99.90;;;;;;5016915;28;20468;-71
2022/08/18 13:05:52;;;;;;;13.83;11.27;;;26.10;99.90;;;;;;5027088;28;20492;-71
2022/08/18 13:08:21;;;;;;;14.20;11.40;;;26.10;99.90;;;;;;5028459;28;20947;-71
2022/08/18 13:10:48;;;;;;;14.47;11.23;;;25.90;99.90;;;;;;5026867;28;20481;-70
2022/08/18 13:13:17;;;;;;;14.23;11.43;;;26.20;99.90;;;;;;5011824;28;20570;-71